createdAt,value
2019-05-02T00:03:16.816Z,"    0"
2019-05-02T00:08:12.560Z,"    0"
2019-05-02T00:13:08.383Z,"    0"
2019-05-02T00:18:04.219Z,"    0"
2019-05-02T00:22:59.630Z,"    0"
2019-05-02T00:27:55.428Z,"    0"
2019-05-02T00:32:53.161Z,"    0"
2019-05-02T00:37:50.319Z,"    0"
2019-05-02T00:42:45.753Z,"    0"
2019-05-02T00:47:42.150Z,"    0"
2019-05-02T00:52:40.876Z,"    0"
2019-05-02T00:57:38.110Z,"    0"
2019-05-02T01:02:35.825Z,"    0"
2019-05-02T01:07:33.101Z,"    0"
2019-05-02T01:12:28.752Z,"    0"
2019-05-02T01:17:30.524Z,"    0"
2019-05-02T01:22:24.830Z,"    0"
2019-05-02T01:27:21.546Z,"    0"
2019-05-02T01:32:16.817Z,"    0"
2019-05-02T01:37:20.625Z,"    0"
2019-05-02T01:42:13.735Z,"    0"
2019-05-02T01:47:09.368Z,"    0"
2019-05-02T01:52:05.028Z,"    0"
2019-05-02T01:57:03.882Z,"    0"
2019-05-02T02:02:00.105Z,"    0"
2019-05-02T02:06:57.487Z,"    0"
2019-05-02T02:11:52.666Z,"    0"
2019-05-02T02:16:48.559Z,"    0"
2019-05-02T02:21:45.041Z,"    0"
2019-05-02T02:26:43.604Z,"    0"
2019-05-02T02:31:46.846Z,"    0"
2019-05-02T02:36:40.255Z,"    0"
2019-05-02T02:41:37.113Z,"    0"
2019-05-02T02:46:37.929Z,"    0"
2019-05-02T02:51:31.767Z,"    0"
2019-05-02T02:56:27.641Z,"    0"
2019-05-02T03:01:29.090Z,"    0"
2019-05-02T03:06:23.624Z,"    0"
2019-05-02T03:11:23.361Z,"    0"
2019-05-02T03:16:19.925Z,"    0"
2019-05-02T03:21:20.309Z,"    0"
2019-05-02T03:26:17.083Z,"    0"
2019-05-02T03:31:23.897Z,"    0"
2019-05-02T03:36:25.720Z,"    0"
2019-05-02T03:41:13.578Z,"    0"
2019-05-02T03:46:13.480Z,"    0"
2019-05-02T03:51:19.193Z,"    0"
2019-05-02T03:56:11.649Z,"    0"
2019-05-02T04:01:09.309Z,"    0"
2019-05-02T04:06:04.693Z,"    0"
2019-05-02T04:11:01.814Z,"    0"
2019-05-02T04:15:57.590Z,"    0"
2019-05-02T04:20:54.345Z,"    0"
2019-05-02T04:25:51.185Z,"    5"
2019-05-02T04:30:51.321Z,"    5"
2019-05-02T04:35:45.849Z,"    5"
2019-05-02T04:40:46.423Z,"   10"
2019-05-02T04:45:55.355Z,"   10"
2019-05-02T04:50:40.582Z,"   10"
2019-05-02T04:55:38.081Z,"   15"
2019-05-02T05:00:33.993Z,"   15"
2019-05-02T05:05:31.291Z,"   20"
2019-05-02T05:10:27.718Z,"   20"
2019-05-02T05:15:37.074Z,"   20"
2019-05-02T05:20:23.128Z,"   20"
2019-05-02T05:25:21.295Z,"   20"
2019-05-02T05:30:18.671Z,"   20"
2019-05-02T05:35:13.957Z,"   25"
2019-05-02T05:40:09.706Z,"   30"
2019-05-02T05:45:09.753Z,"   40"
2019-05-02T05:50:05.729Z,"   45"
2019-05-02T05:55:04.653Z,"   45"
2019-05-02T06:00:03.689Z,"   50"
2019-05-02T06:05:03.434Z,"   60"
2019-05-02T06:10:02.404Z,"   60"
2019-05-02T06:15:01.651Z,"   65"
2019-05-02T06:19:57.910Z,"   60"
2019-05-02T06:24:53.196Z,"   60"
2019-05-02T06:29:51.130Z,"   60"
2019-05-02T06:34:50.228Z,"   60"
2019-05-02T06:39:45.794Z,"   80"
2019-05-02T06:44:41.908Z,"   95"
2019-05-02T06:49:37.724Z,"   90"
2019-05-02T06:54:33.516Z,"  130"
2019-05-02T06:59:29.461Z,"  135"
2019-05-02T07:04:26.550Z,"  130"
2019-05-02T07:09:23.003Z,"  150"
2019-05-02T07:14:23.753Z,"  200"
2019-05-02T07:19:21.902Z,"  195"
2019-05-02T07:24:19.257Z,"  210"
2019-05-02T07:29:17.099Z,"  175"
2019-05-02T07:34:14.352Z,"  330"
2019-05-02T07:39:10.605Z,"  355"
2019-05-02T07:44:06.722Z,"  540"
2019-05-02T07:49:03.246Z,"  350"
2019-05-02T07:54:01.456Z,"  555"
2019-05-02T07:58:56.745Z,"  275"
2019-05-02T08:03:52.058Z,"  315"
2019-05-02T08:08:48.549Z,"  360"
2019-05-02T08:13:44.090Z,"  650"
2019-05-02T08:18:40.357Z,"  315"
2019-05-02T08:23:36.335Z,"  345"
2019-05-02T08:28:32.186Z,"  850"
2019-05-02T08:33:34.801Z,"  480"
2019-05-02T08:38:30.507Z,"  880"
2019-05-02T08:43:26.744Z,"  485"
2019-05-02T08:48:23.033Z,"  400"
2019-05-02T08:53:20.344Z,"  450"
2019-05-02T08:58:17.638Z,"  380"
2019-05-02T09:03:13.504Z,"  470"
2019-05-02T09:08:14.162Z,"  410"
2019-05-02T09:13:09.792Z,"  580"
2019-05-02T09:18:06.665Z,"  520"
2019-05-02T09:23:03.297Z,"  470"
2019-05-02T09:27:59.418Z,"  945"
2019-05-02T09:32:57.138Z,"  945"
2019-05-02T09:37:56.450Z," 1060"
2019-05-02T09:42:58.464Z,"  910"
2019-05-02T09:48:03.852Z," 1225"
2019-05-02T09:52:53.006Z,"  970"
2019-05-02T09:57:48.791Z," 1065"
2019-05-02T10:02:46.195Z," 1040"
2019-05-02T10:07:42.459Z," 1225"
2019-05-02T10:12:39.442Z," 1170"
2019-05-02T10:17:37.445Z," 1375"
2019-05-02T10:22:39.352Z," 1005"
2019-05-02T10:27:38.469Z," 1270"
2019-05-02T10:32:34.661Z," 1100"
2019-05-02T10:37:38.093Z," 1220"
2019-05-02T10:42:32.436Z," 1125"
2019-05-02T10:47:27.863Z," 1185"
2019-05-02T10:52:29.642Z,"  965"
2019-05-02T10:57:23.315Z," 1195"
2019-05-02T11:02:19.377Z," 1110"
2019-05-02T11:07:17.208Z," 1210"
2019-05-02T11:12:16.386Z," 1485"
2019-05-02T11:17:18.027Z,"  520"
2019-05-02T11:22:13.103Z," 1425"
2019-05-02T11:27:12.671Z," 1265"
2019-05-02T11:32:08.977Z," 1630"
2019-05-02T11:37:04.838Z,"  455"
2019-05-02T11:41:58.300Z,"  295"
2019-05-02T11:46:54.581Z," 1465"
2019-05-02T11:51:55.770Z,"  305"
2019-05-02T11:56:53.347Z,"  365"
2019-05-02T12:01:59.086Z,"  720"
2019-05-02T12:06:50.047Z,"  340"
2019-05-02T12:11:55.030Z," 1435"
2019-05-02T12:16:49.816Z," 1425"
2019-05-02T12:21:45.432Z,"  285"
2019-05-02T12:26:41.920Z,"  330"
2019-05-02T12:31:38.484Z,"  380"
2019-05-02T12:36:33.627Z,"  510"
2019-05-02T12:41:29.479Z,"  435"
2019-05-02T12:46:25.122Z,"  440"
2019-05-02T12:51:23.080Z,"  400"
2019-05-02T12:56:18.707Z,"  500"
2019-05-02T13:01:14.976Z,"  245"
2019-05-02T13:06:12.171Z,"  215"
2019-05-02T13:11:11.807Z,"  185"
2019-05-02T13:16:07.619Z,"  140"
2019-05-02T13:21:08.207Z,"  135"
2019-05-02T13:26:10.112Z,"  210"
2019-05-02T13:31:02.537Z,"   60"
2019-05-02T13:35:57.891Z,"   35"
2019-05-02T13:40:53.321Z,"   25"
2019-05-02T13:45:49.033Z,"   15"
2019-05-02T13:50:44.813Z,"    5"
2019-05-02T13:55:42.594Z,"    5"
2019-05-02T14:00:37.507Z,"   10"
2019-05-02T14:05:33.037Z,"   15"
2019-05-02T14:10:33.740Z,"   20"
2019-05-02T14:15:28.352Z,"   20"
2019-05-02T14:20:23.888Z,"   20"
2019-05-02T14:25:19.704Z,"   25"
2019-05-02T14:30:15.462Z,"   25"
2019-05-02T14:35:11.805Z,"   25"
2019-05-02T14:40:07.515Z,"   20"
2019-05-02T14:45:11.982Z,"   30"
2019-05-02T14:50:05.138Z,"   35"
2019-05-02T14:55:00.379Z,"   55"
2019-05-02T15:00:00.605Z,"   70"
2019-05-02T15:04:57.283Z,"   65"
2019-05-02T15:09:57.219Z,"   75"
2019-05-02T15:14:57.501Z,"  100"
2019-05-02T15:19:54.782Z,"  105"
2019-05-02T15:24:50.310Z,"   60"
2019-05-02T15:29:45.742Z,"   45"
2019-05-02T15:34:46.641Z,"   50"
2019-05-02T15:44:42.591Z,"   50"
2019-05-02T15:49:41.792Z,"   75"
2019-05-02T15:54:37.960Z,"   60"
2019-05-02T15:59:37.567Z,"   60"
2019-05-02T16:04:32.796Z,"   55"
2019-05-02T16:09:28.551Z,"   45"
2019-05-02T16:14:27.240Z,"   40"
2019-05-02T16:19:29.287Z,"   25"
2019-05-02T16:24:24.840Z,"   25"
2019-05-02T16:29:26.757Z,"   30"
2019-05-02T16:34:19.458Z,"   30"
2019-05-02T16:39:16.150Z,"   35"
2019-05-02T16:44:12.685Z,"   40"
2019-05-02T16:49:08.806Z,"   40"
2019-05-02T16:54:08.857Z,"   50"
2019-05-02T16:59:04.468Z,"   50"
2019-05-02T17:04:03.190Z,"   55"
2019-05-02T17:09:02.217Z,"   85"
2019-05-02T17:13:57.714Z,"   70"
2019-05-02T17:18:56.641Z,"   55"
2019-05-02T17:23:52.598Z,"   35"
2019-05-02T17:28:49.135Z,"   55"
2019-05-02T17:33:46.211Z,"   40"
2019-05-02T17:38:43.474Z,"   40"
2019-05-02T17:43:42.162Z,"   20"
2019-05-02T17:48:39.260Z,"   15"
2019-05-02T17:53:41.098Z,"   10"
2019-05-02T17:58:33.961Z,"   10"
2019-05-02T18:03:31.203Z,"   10"
2019-05-02T18:08:29.166Z,"    5"
2019-05-02T18:13:29.219Z,"    5"
2019-05-02T18:18:24.153Z,"    0"
2019-05-02T18:23:25.903Z,"    5"
2019-05-02T18:28:24.630Z,"    5"
2019-05-02T18:33:19.610Z,"    5"
2019-05-02T18:38:15.841Z,"   15"
2019-05-02T18:43:14.217Z,"   10"
2019-05-02T18:48:10.060Z,"    5"
2019-05-02T18:53:05.780Z,"    5"
2019-05-02T18:58:05.124Z,"    0"
2019-05-02T19:03:02.607Z,"    0"
2019-05-02T19:07:57.770Z,"    0"
2019-05-02T19:12:56.065Z,"    0"
2019-05-02T19:17:53.444Z,"    0"
2019-05-02T19:22:54.776Z,"    0"
2019-05-02T19:27:48.737Z,"    0"
2019-05-02T19:32:44.343Z,"    0"
2019-05-02T19:37:44.568Z,"    0"
2019-05-02T19:42:42.443Z,"    0"
2019-05-02T19:47:42.026Z,"    0"
2019-05-02T19:52:40.534Z,"    0"
2019-05-02T19:57:37.482Z,"    0"
2019-05-02T20:02:37.436Z,"    0"
2019-05-02T20:07:32.645Z,"    0"
2019-05-02T20:12:28.320Z,"    0"
2019-05-02T20:17:25.196Z,"    0"
2019-05-02T20:22:22.360Z,"    0"
2019-05-02T20:27:17.626Z,"    0"
2019-05-02T20:32:13.297Z,"    0"
2019-05-02T20:37:09.786Z,"    0"
2019-05-02T20:42:05.256Z,"    0"
2019-05-02T20:47:02.583Z,"    0"
2019-05-02T20:51:58.127Z,"    0"
2019-05-02T20:56:54.018Z,"    0"
2019-05-02T21:01:52.282Z,"    0"
2019-05-02T21:06:47.856Z,"    0"
2019-05-02T21:11:43.370Z,"    0"
2019-05-02T21:16:39.593Z,"    0"
2019-05-02T21:21:35.348Z,"    0"
2019-05-02T21:26:32.794Z,"    0"
2019-05-02T21:31:29.325Z,"    0"
2019-05-02T21:36:24.376Z,"    0"
2019-05-02T21:41:21.772Z,"    0"
2019-05-02T21:46:17.510Z,"    0"
2019-05-02T21:51:13.414Z,"    0"
2019-05-02T21:56:09.339Z,"    0"
2019-05-02T22:01:06.998Z,"    0"
2019-05-02T22:06:02.552Z,"    0"
2019-05-02T22:10:59.394Z,"    0"
2019-05-02T22:15:54.979Z,"    0"
2019-05-02T22:20:52.328Z,"    0"
2019-05-02T22:25:47.561Z,"    0"
2019-05-02T22:30:44.385Z,"    0"
2019-05-02T22:35:43.203Z,"    0"
2019-05-02T22:40:39.098Z,"    0"
2019-05-02T22:45:35.834Z,"    0"
2019-05-02T22:50:32.520Z,"    0"
2019-05-02T22:55:27.629Z,"    0"
2019-05-02T23:00:24.255Z,"    0"
2019-05-02T23:05:19.939Z,"    0"
2019-05-02T23:10:15.710Z,"    0"
2019-05-02T23:15:12.597Z,"    0"
2019-05-02T23:20:08.091Z,"    0"
2019-05-02T23:25:03.808Z,"    0"
2019-05-02T23:29:59.447Z,"    0"
2019-05-02T23:34:55.312Z,"    0"
2019-05-02T23:39:52.307Z,"    0"
2019-05-02T23:44:47.669Z,"    0"
2019-05-02T23:49:43.169Z,"    0"
2019-05-02T23:54:49.303Z,"    0"
2019-05-02T23:59:39.091Z,"    0"
